Time;durP1;ratioP1;P1;durP2;ratioP2;P2;SDS_P1;SDS_P2;PMS_P1;PMS_P2;Temp;Humidity;BMP_temperature;BMP_pressure;BME280_temperature;BME280_humidity;BME280_pressure;Samples;Min_cycle;Max_cycle;Signal;HPM_P1;HPM_P2
2023/05/24 00:00:43;;;;;;;5.00;3.55;;;14.20;66.80;;;17.13;45.76;97944.38;4972403;28;20422;-46
2023/05/24 00:03:14;;;;;;;4.95;3.15;;;14.20;66.60;;;17.16;45.67;97947.69;4973116;28;20119;-49
2023/05/24 00:05:42;;;;;;;5.15;3.22;;;14.20;66.80;;;17.14;45.71;97934.47;4973150;28;20050;-48
2023/05/24 00:08:09;;;;;;;6.75;3.53;;;14.20;67.10;;;17.06;45.75;97935.44;4955107;28;20046;-47
2023/05/24 00:10:37;;;;;;;3.92;3.13;;;14.10;67.40;;;17.04;45.81;97933.94;4955239;28;20065;-48
2023/05/24 00:13:05;;;;;;;7.07;5.13;;;14.00;67.40;;;17.00;45.70;97930.00;4972885;28;20051;-47
2023/05/24 00:15:32;;;;;;;5.13;3.30;;;14.00;67.30;;;16.96;45.90;97934.09;4972993;28;20051;-45
2023/05/24 00:18:00;;;;;;;6.13;3.42;;;14.10;67.20;;;16.95;45.64;97933.28;4972796;28;20047;-47
2023/05/24 00:20:28;;;;;;;5.95;3.28;;;14.00;67.20;;;16.83;46.08;97930.28;4971826;28;20047;-47
2023/05/24 00:22:55;;;;;;;5.00;3.22;;;13.80;67.50;;;16.84;46.04;97929.25;4973084;28;20050;-46
2023/05/24 00:25:23;;;;;;;6.40;3.33;;;13.90;67.40;;;16.82;45.86;97925.91;4971569;28;20607;-46
2023/05/24 00:27:51;;;;;;;6.50;3.17;;;13.90;67.50;;;16.83;45.89;97932.16;4972473;28;20043;-46
2023/05/24 00:30:18;;;;;;;9.70;4.13;;;13.90;67.20;;;16.80;45.69;97927.13;4971815;28;20055;-46
2023/05/24 00:32:47;;;;;;;5.80;3.33;;;13.80;67.10;;;16.80;45.52;97924.44;4972531;28;20046;-45
2023/05/24 00:35:15;;;;;;;6.28;3.40;;;13.80;67.00;;;16.82;45.94;97927.78;4954703;28;20050;-46
2023/05/24 00:37:44;;;;;;;5.60;3.65;;;13.90;66.70;;;16.81;45.59;97921.56;4954810;28;20507;-46
2023/05/24 00:40:12;;;;;;;7.35;3.55;;;13.90;66.50;;;16.75;45.35;97927.72;4970522;28;20042;-45
2023/05/24 00:42:40;;;;;;;6.07;3.45;;;13.80;65.90;;;16.66;45.25;97929.69;4954968;28;20058;-46
2023/05/24 00:45:08;;;;;;;7.05;4.57;;;13.70;65.90;;;16.58;45.22;97924.44;4972669;28;20043;-45
2023/05/24 00:47:36;;;;;;;8.95;3.95;;;13.60;66.50;;;16.57;45.31;97924.63;4972114;28;20066;-47
2023/05/24 00:50:07;;;;;;;8.48;3.85;;;13.60;66.20;;;16.57;45.18;97921.94;4972222;28;20042;-50
2023/05/24 00:52:35;;;;;;;5.45;3.42;;;13.60;65.90;;;16.48;45.39;97915.88;4971213;28;20089;-49
2023/05/24 00:55:04;;;;;;;9.40;4.57;;;13.50;66.60;;;16.48;45.61;97915.88;4971067;28;20050;-46
2023/05/24 00:57:34;;;;;;;6.75;3.55;;;13.50;66.70;;;16.45;45.12;97922.47;4953974;28;20058;-49
2023/05/24 01:00:04;;;;;;;11.00;4.63;;;13.50;66.40;;;16.46;45.51;97920.59;4954759;28;20054;-45
2023/05/24 01:02:32;;;;;;;9.02;4.05;;;13.50;66.50;;;16.50;45.34;97920.03;4971203;28;20063;-45
2023/05/24 01:05:00;;;;;;;10.57;4.32;;;13.60;66.20;;;16.44;45.24;97912.75;4955075;28;20050;-47
2023/05/24 01:08:23;;;;;;;7.22;3.78;;;13.50;66.20;;;16.30;45.49;97913.63;4971904;28;20053;-47
2023/05/24 01:11:03;;;;;;;7.47;3.85;;;13.40;65.80;;;16.38;45.38;97910.84;4957552;28;20422;-49
2023/05/24 01:13:53;;;;;;;10.10;4.47;;;13.40;66.40;;;16.24;45.55;97917.91;4971113;28;20042;-49
2023/05/24 01:16:40;;;;;;;7.70;3.80;;;13.20;66.80;;;16.20;45.80;97905.88;4972664;28;20046;-45
2023/05/24 01:19:42;;;;;;;8.70;4.05;;;13.20;67.10;;;16.17;45.88;97908.97;4952170;28;20055;-46
2023/05/24 01:23:06;;;;;;;5.57;3.55;;;13.20;67.20;;;16.11;46.07;97907.88;4970969;28;20043;-46
2023/05/24 01:25:46;;;;;;;9.35;3.88;;;13.10;67.60;;;16.20;45.70;97919.31;4970187;28;20506;-45
2023/05/24 01:28:16;;;;;;;7.70;4.00;;;13.20;67.40;;;16.16;45.59;97915.34;4971026;28;20059;-45
2023/05/24 01:30:44;;;;;;;6.65;3.65;;;13.20;67.20;;;16.08;46.10;97907.41;4971602;28;20051;-47
2023/05/24 01:33:12;;;;;;;6.10;3.88;;;13.10;67.50;;;16.03;46.03;97910.69;4970935;28;20054;-49
2023/05/24 01:35:41;;;;;;;11.27;4.88;;;13.10;68.00;;;16.06;45.99;97915.66;4970907;28;20047;-50
2023/05/24 01:38:13;;;;;;;8.55;3.85;;;13.10;67.80;;;16.06;46.17;97917.50;4953028;28;20426;-45
2023/05/24 01:40:41;;;;;;;7.85;4.55;;;13.10;67.90;;;16.03;46.12;97915.19;4971578;28;20054;-48
2023/05/24 01:43:36;;;;;;;9.65;4.22;;;13.00;67.80;;;16.07;46.11;97916.47;4954217;28;20506;-45
2023/05/24 01:46:31;;;;;;;;;;;13.10;67.80;;;16.26;45.88;97915.03;4955306;28;20410;-47
2023/05/24 01:49:24;;;;;;;5.80;4.45;;;13.20;67.90;;;16.23;45.69;97918.94;4956102;28;19933;-47
2023/05/24 01:51:55;;;;;;;7.18;4.07;;;13.10;67.60;;;16.17;45.77;97914.34;4971360;28;20038;-45
2023/05/24 01:54:25;;;;;;;8.10;4.00;;;13.20;67.40;;;16.16;46.28;97923.41;4954266;28;20054;-46
2023/05/24 01:56:56;;;;;;;6.88;3.88;;;13.20;67.50;;;16.12;45.91;97922.94;4954004;28;20360;-47
2023/05/24 01:59:27;;;;;;;8.88;4.47;;;13.20;67.70;;;16.03;45.98;97926.78;4962304;28;20057;-50
2023/05/24 02:01:55;;;;;;;7.07;4.25;;;13.00;67.90;;;15.94;46.04;97923.38;4953809;28;20050;-47
2023/05/24 02:04:24;;;;;;;6.60;3.85;;;12.90;68.60;;;15.94;46.17;97923.38;4970621;28;20154;-47
2023/05/24 02:06:51;;;;;;;6.10;3.90;;;12.90;68.70;;;15.96;46.28;97923.19;4946710;28;20053;-45
2023/05/24 02:09:19;;;;;;;6.85;3.97;;;12.90;68.60;;;15.93;46.19;97928.91;4954078;28;20039;-45
2023/05/24 02:11:47;;;;;;;7.65;4.40;;;12.90;68.30;;;15.90;46.49;97924.78;4953341;28;20051;-49
2023/05/24 02:14:16;;;;;;;14.15;3.90;;;12.90;68.50;;;15.89;46.52;97933.81;4971692;28;20046;-50
2023/05/24 02:16:45;;;;;;;7.90;4.25;;;12.90;68.50;;;15.89;46.41;97936.50;4971754;28;20043;-48
2023/05/24 02:19:13;;;;;;;14.02;4.40;;;12.90;68.20;;;15.90;46.41;97932.00;4954206;28;20038;-46
2023/05/24 02:21:41;;;;;;;7.72;3.97;;;12.90;68.30;;;15.82;46.43;97932.09;4954503;28;20090;-46
2023/05/24 02:24:11;;;;;;;9.60;4.38;;;12.80;68.50;;;15.82;46.29;97934.75;4973447;28;20478;-47
2023/05/24 02:26:39;;;;;;;7.85;4.53;;;12.80;68.40;;;15.72;46.33;97938.56;4973074;28;20057;-48
2023/05/24 02:29:06;;;;;;;6.95;3.83;;;12.60;68.80;;;15.70;46.48;97939.75;4957427;28;20072;-47
2023/05/24 02:31:34;;;;;;;8.23;4.25;;;12.60;68.90;;;15.69;46.64;97933.56;4973155;28;20570;-47
2023/05/24 02:34:02;;;;;;;7.03;3.58;;;12.60;69.10;;;15.67;46.70;97935.59;4956389;28;20050;-49
2023/05/24 02:36:31;;;;;;;9.77;4.50;;;12.60;69.30;;;15.64;46.65;97938.63;4964483;28;20079;-47
2023/05/24 02:38:59;;;;;;;7.70;4.10;;;12.60;69.10;;;15.65;46.67;97937.63;4964980;28;20057;-47
2023/05/24 02:41:27;;;;;;;8.00;3.75;;;12.60;69.10;;;15.61;46.62;97941.72;4957001;28;20054;-47
2023/05/24 02:43:54;;;;;;;6.85;4.03;;;12.60;69.00;;;15.65;46.49;97932.28;4974815;28;20454;-46
2023/05/24 02:46:22;;;;;;;8.50;3.75;;;12.60;68.80;;;15.60;46.73;97929.31;4956590;28;20217;-46
2023/05/24 02:48:49;;;;;;;6.18;3.92;;;12.50;69.00;;;15.59;46.84;97926.81;4974358;28;20038;-45
2023/05/24 02:51:17;;;;;;;7.03;3.92;;;12.60;69.20;;;15.51;46.71;97925.91;4956307;28;20047;-47
2023/05/24 02:53:45;;;;;;;8.27;3.78;;;12.50;69.30;;;15.49;46.73;97936.00;4974454;28;20051;-49
2023/05/24 02:56:13;;;;;;;7.40;3.83;;;12.50;69.30;;;15.39;46.91;97935.41;4956833;28;20047;-46
2023/05/24 02:58:41;;;;;;;12.38;3.88;;;12.40;69.10;;;15.42;46.81;97928.88;4956210;28;20079;-49
2023/05/24 03:01:11;;;;;;;10.30;3.97;;;12.30;69.40;;;15.36;46.88;97930.44;4956085;28;20050;-46
2023/05/24 03:03:39;;;;;;;8.30;4.38;;;12.30;69.90;;;15.26;47.15;97938.75;4955419;28;20058;-47
2023/05/24 03:06:07;;;;;;;9.75;4.32;;;12.20;70.90;;;15.26;47.08;97933.38;4956634;28;20046;-46
2023/05/24 03:08:36;;;;;;;9.02;4.05;;;12.20;70.00;;;15.27;46.98;97936.91;4974050;28;20046;-48
2023/05/24 03:11:05;;;;;;;9.38;4.45;;;12.20;69.90;;;15.29;47.04;97938.38;4964067;28;20053;-46
2023/05/24 03:13:34;;;;;;;11.90;4.07;;;12.30;69.80;;;15.32;47.05;97935.31;4972988;28;20408;-45
2023/05/24 03:16:01;;;;;;;8.60;3.67;;;12.30;69.60;;;15.38;46.94;97938.31;4956776;28;20538;-46
2023/05/24 03:18:29;;;;;;;8.60;4.30;;;12.40;69.30;;;15.29;47.00;97927.63;4972810;28;20426;-50
2023/05/24 03:20:57;;;;;;;8.40;4.15;;;12.30;69.60;;;15.33;46.79;97925.41;4973839;28;20031;-49
2023/05/24 03:23:25;;;;;;;7.60;3.97;;;12.30;69.20;;;15.30;46.92;97923.94;4956446;28;20414;-45
2023/05/24 03:25:53;;;;;;;9.57;4.65;;;12.30;69.50;;;15.29;46.90;97932.19;4964445;28;20043;-45
2023/05/24 03:28:21;;;;;;;8.57;4.50;;;12.30;69.60;;;15.31;46.92;97928.28;4972122;28;20046;-48
2023/05/24 03:30:48;;;;;;;8.15;3.78;;;12.30;69.00;;;15.27;46.78;97931.53;4955846;28;20511;-46
2023/05/24 03:33:17;;;;;;;6.40;4.05;;;12.30;69.30;;;15.24;47.07;97922.00;4955283;28;20047;-46
2023/05/24 03:35:45;;;;;;;6.97;3.97;;;12.30;69.50;;;15.26;46.95;97924.53;4955651;28;20046;-48
2023/05/24 03:38:13;;;;;;;8.82;4.10;;;12.30;69.10;;;15.28;46.87;97925.16;4955859;28;20069;-46
2023/05/24 03:40:43;;;;;;;6.32;4.53;;;12.30;69.00;;;15.23;46.84;97928.38;4971995;28;20047;-47
2023/05/24 03:43:20;;;;;;;9.07;4.00;;;12.30;69.20;;;15.23;46.97;97925.69;4973673;28;20034;-47
2023/05/24 03:45:53;;;;;;;9.13;4.20;;;12.30;69.30;;;15.25;46.85;97918.28;4941145;28;20039;-46
2023/05/24 03:48:20;;;;;;;5.53;4.40;;;12.30;69.20;;;15.18;46.95;97916.53;4972237;28;20046;-47
2023/05/24 03:50:50;;;;;;;5.30;3.72;;;12.20;69.30;;;15.17;46.95;97923.75;4972203;28;20510;-46
2023/05/24 03:53:19;;;;;;;8.18;4.00;;;12.20;69.60;;;15.18;47.02;97921.91;4973372;28;20495;-46
2023/05/24 03:55:50;;;;;;;8.10;4.28;;;12.20;69.30;;;15.20;47.04;97925.22;4973346;28;20054;-48
2023/05/24 03:58:18;;;;;;;11.43;4.00;;;12.30;69.20;;;15.16;47.22;97920.25;4963728;28;20050;-50
2023/05/24 04:00:46;;;;;;;6.70;3.80;;;12.20;69.40;;;15.10;47.12;97918.31;4973007;28;20043;-46
2023/05/24 04:03:13;;;;;;;7.38;3.90;;;12.10;70.10;;;15.09;47.28;97915.81;4973536;28;20050;-47
2023/05/24 04:05:41;;;;;;;8.75;4.97;;;12.10;70.30;;;15.10;47.37;97912.94;4955245;28;20054;-48
2023/05/24 04:08:11;;;;;;;11.02;4.75;;;12.10;70.50;;;15.12;47.36;97910.91;4955421;28;20051;-46
2023/05/24 04:10:38;;;;;;;7.03;4.38;;;12.20;69.90;;;15.15;47.07;97915.88;4955233;28;20062;-46
2023/05/24 04:13:07;;;;;;;6.47;3.50;;;12.20;69.60;;;15.10;47.23;97914.78;4955374;28;20557;-48
2023/05/24 04:15:39;;;;;;;6.20;3.72;;;12.10;70.10;;;15.12;47.29;97910.91;4956170;28;20562;-50
2023/05/24 04:18:07;;;;;;;7.10;4.20;;;12.10;70.30;;;15.11;47.36;97913.78;4955034;28;20051;-47
2023/05/24 04:20:35;;;;;;;10.85;4.13;;;12.10;70.30;;;15.06;47.25;97919.69;4968123;28;20047;-46
2023/05/24 04:23:02;;;;;;;7.43;4.32;;;12.00;70.20;;;15.07;47.43;97917.84;4971295;28;20059;-50
2023/05/24 04:25:32;;;;;;;10.60;4.40;;;12.10;70.30;;;15.11;47.42;97906.56;4963105;28;20396;-48
2023/05/24 04:28:01;;;;;;;6.30;4.05;;;12.20;70.00;;;15.16;47.30;97922.94;4954511;28;20047;-47
2023/05/24 04:30:31;;;;;;;6.65;4.65;;;12.20;69.60;;;15.14;47.26;97921.44;4955119;28;20058;-46
2023/05/24 04:32:58;;;;;;;10.15;4.80;;;12.20;69.90;;;15.09;47.36;97916.63;4955584;28;20522;-46
2023/05/24 04:35:29;;;;;;;10.70;4.63;;;12.10;70.50;;;15.10;47.37;97923.66;4954967;28;20046;-46
2023/05/24 04:37:58;;;;;;;9.43;4.57;;;12.00;70.70;;;15.08;47.52;97930.22;4955232;28;20520;-45
2023/05/24 04:40:26;;;;;;;8.57;4.10;;;12.00;70.90;;;15.02;47.54;97934.44;4972448;28;20058;-48
2023/05/24 04:42:53;;;;;;;6.85;4.00;;;11.90;71.00;;;15.03;47.76;97938.81;4972503;28;20403;-46
2023/05/24 04:45:21;;;;;;;6.15;4.13;;;12.00;71.30;;;15.04;47.76;97939.63;4972231;28;20418;-46
2023/05/24 04:47:48;;;;;;;9.27;4.38;;;12.00;71.50;;;15.01;47.67;97937.34;4972159;28;20051;-45
2023/05/24 04:50:16;;;;;;;11.98;4.43;;;11.90;71.40;;;15.01;47.79;97943.53;4972007;28;20054;-46
2023/05/24 04:52:44;;;;;;;9.15;3.65;;;11.90;71.60;;;15.03;47.68;97936.13;4954997;28;20418;-48
2023/05/24 04:55:12;;;;;;;10.45;4.05;;;12.00;71.30;;;15.05;47.69;97939.47;4955430;28;20047;-45
2023/05/24 04:57:40;;;;;;;6.95;4.22;;;12.00;71.00;;;15.03;47.76;97946.84;4972118;28;20054;-47
2023/05/24 05:00:09;;;;;;;11.02;3.90;;;12.00;71.20;;;15.04;47.79;97947.69;4972239;28;20502;-47
2023/05/24 05:02:36;;;;;;;10.63;5.28;;;12.00;71.20;;;15.05;47.76;97941.31;4972120;28;20066;-47
2023/05/24 05:05:05;;;;;;;7.20;4.65;;;12.00;71.10;;;15.03;47.85;97956.75;4972590;28;20374;-46
2023/05/24 05:07:32;;;;;;;14.25;4.68;;;12.00;70.70;;;15.03;47.66;97956.75;4972317;28;20043;-46
2023/05/24 05:10:00;;;;;;;9.88;3.75;;;12.10;70.90;;;15.04;47.54;97956.56;4971362;28;20287;-49
2023/05/24 05:12:28;;;;;;;9.35;4.10;;;12.00;70.60;;;15.03;47.68;97954.06;4972282;28;20522;-46
2023/05/24 05:14:55;;;;;;;8.73;4.78;;;12.00;70.60;;;15.03;47.37;97949.53;4972230;28;20057;-47
2023/05/24 05:17:23;;;;;;;12.13;5.10;;;12.00;70.10;;;15.08;47.17;97951.66;4972098;28;20053;-46
2023/05/24 05:19:50;;;;;;;10.63;4.60;;;12.10;69.30;;;15.05;47.34;97950.19;4971868;28;20400;-48
2023/05/24 05:22:18;;;;;;;9.73;4.28;;;12.10;70.00;;;15.05;47.23;97949.38;4971890;28;20065;-47
2023/05/24 05:24:46;;;;;;;7.18;3.95;;;12.10;69.20;;;15.03;47.15;97952.22;4971182;28;20043;-46
2023/05/24 05:27:13;;;;;;;9.50;4.50;;;12.00;69.80;;;15.08;47.21;97946.28;4971985;28;20043;-46
2023/05/24 05:29:41;;;;;;;9.30;3.65;;;12.00;69.60;;;15.13;47.11;97952.78;4971947;28;20039;-47
2023/05/24 05:32:08;;;;;;;8.10;3.97;;;12.20;69.60;;;15.19;46.81;97951.22;4971626;28;20046;-45
2023/05/24 05:34:36;;;;;;;8.60;4.22;;;12.20;68.70;;;15.12;46.65;97942.22;4972162;28;20038;-50
2023/05/24 05:37:04;;;;;;;8.55;3.80;;;12.10;68.80;;;15.10;46.59;97946.94;4964526;28;20073;-47
2023/05/24 05:39:32;;;;;;;5.85;4.18;;;12.10;68.50;;;15.02;46.89;97949.72;4972333;28;20674;-46
2023/05/24 05:42:01;;;;;;;13.10;4.30;;;12.00;68.60;;;15.02;46.68;97950.53;4971551;28;20031;-45
2023/05/24 05:44:28;;;;;;;8.38;5.13;;;11.90;68.80;;;14.99;46.51;97939.38;4971132;28;20047;-46
2023/05/24 05:46:56;;;;;;;11.18;4.22;;;11.90;68.40;;;15.05;46.70;97939.47;4971841;28;20046;-47
2023/05/24 05:49:23;;;;;;;10.27;4.20;;;12.10;68.80;;;15.05;46.73;97941.31;4972282;28;20050;-48
2023/05/24 05:51:51;;;;;;;8.00;3.85;;;12.10;68.40;;;15.03;46.56;97938.81;4971801;28;20051;-46
2023/05/24 05:54:19;;;;;;;10.55;4.60;;;12.10;68.20;;;15.03;46.56;97941.50;4972407;28;20047;-47
2023/05/24 05:56:47;;;;;;;7.50;3.97;;;12.10;67.60;;;15.10;46.60;97942.44;4973301;28;20227;-48
2023/05/24 05:59:14;;;;;;;7.22;4.05;;;12.20;67.80;;;15.13;46.13;97943.91;4975652;28;20064;-47
2023/05/24 06:01:45;;;;;;;7.18;3.60;;;12.20;67.00;;;15.13;46.22;97941.22;4974719;28;20051;-46
2023/05/24 06:04:14;;;;;;;9.93;3.90;;;12.10;67.40;;;15.11;46.36;97930.69;4975413;28;20065;-47
2023/05/24 06:06:44;;;;;;;14.30;4.43;;;12.10;68.00;;;15.18;46.39;97940.66;4975507;28;20415;-47
2023/05/24 06:09:11;;;;;;;10.13;4.78;;;12.20;68.00;;;15.22;46.37;97941.97;4975933;28;20065;-48
2023/05/24 06:11:43;;;;;;;6.15;4.38;;;12.20;67.80;;;15.26;46.02;97935.25;4975438;28;20054;-47
2023/05/24 06:14:18;;;;;;;8.93;3.90;;;12.30;67.40;;;15.30;46.13;97940.03;4974242;28;20419;-47
2023/05/24 06:16:46;;;;;;;9.80;3.53;;;12.30;66.80;;;15.25;46.03;97937.06;4975365;28;20434;-49
2023/05/24 06:19:15;;;;;;;14.90;4.57;;;12.20;67.30;;;15.25;45.92;97938.94;4958131;28;20038;-47
2023/05/24 06:21:46;;;;;;;12.65;4.40;;;12.20;67.10;;;15.23;46.09;97938.28;4974490;28;20051;-47
2023/05/24 06:24:19;;;;;;;10.88;3.75;;;12.20;67.30;;;15.26;45.91;97937.94;4975153;28;20070;-47
2023/05/24 06:26:48;;;;;;;9.35;3.80;;;12.20;66.70;;;15.31;46.00;97936.34;4974080;28;20057;-48
2023/05/24 06:29:21;;;;;;;12.88;4.30;;;12.30;67.10;;;15.36;45.73;97935.78;4973823;28;20045;-47
2023/05/24 06:31:49;;;;;;;10.85;4.32;;;12.40;66.80;;;15.40;45.78;97939.78;4974723;28;20604;-47
2023/05/24 06:34:20;;;;;;;7.85;3.75;;;12.40;66.60;;;15.39;45.49;97946.13;4974722;28;20049;-47
2023/05/24 06:36:49;;;;;;;10.18;3.97;;;12.40;66.70;;;15.40;45.86;97955.03;4974724;28;20047;-47
2023/05/24 06:39:17;;;;;;;7.95;3.75;;;12.40;66.80;;;15.42;45.86;97963.75;4974715;28;20050;-46
2023/05/24 06:41:45;;;;;;;7.03;4.05;;;12.40;66.50;;;15.43;45.92;97963.56;4974367;28;20058;-47
2023/05/24 06:44:15;;;;;;;8.73;5.07;;;12.40;67.00;;;15.45;46.23;97958.84;4973582;28;20050;-47
2023/05/24 06:46:42;;;;;;;6.63;4.03;;;12.50;67.10;;;15.50;46.15;97960.97;4974314;28;20054;-46
2023/05/24 06:49:11;;;;;;;7.75;4.32;;;12.50;67.30;;;15.52;45.58;97967.78;4974618;28;20047;-46
2023/05/24 06:51:39;;;;;;;6.85;4.55;;;12.50;66.00;;;15.53;45.70;97971.34;4956830;28;20423;-47
2023/05/24 06:54:06;;;;;;;11.48;5.15;;;12.50;67.10;;;15.58;46.01;97973.44;4957322;28;20047;-46
2023/05/24 06:56:34;;;;;;;7.55;3.90;;;12.60;67.20;;;15.62;45.86;97985.47;4974296;28;20054;-49
2023/05/24 06:59:02;;;;;;;13.93;4.80;;;12.60;66.80;;;15.67;45.98;97985.75;4974461;28;20097;-47
2023/05/24 07:01:29;;;;;;;10.02;3.88;;;12.70;67.10;;;15.65;45.63;97988.63;4974719;28;20047;-46
2023/05/24 07:03:57;;;;;;;12.57;4.75;;;12.70;66.60;;;15.63;45.57;97992.53;4973940;28;20047;-46
2023/05/24 07:06:25;;;;;;;13.35;4.03;;;12.60;66.00;;;15.56;45.29;97984.38;4956846;28;20062;-48
2023/05/24 07:08:53;;;;;;;6.90;3.83;;;12.50;66.40;;;15.48;45.92;97993.34;4973967;28;20511;-46
2023/05/24 07:11:21;;;;;;;6.60;4.25;;;12.40;67.10;;;15.45;45.97;97993.72;4972896;28;20051;-47
2023/05/24 07:13:49;;;;;;;8.32;3.78;;;12.40;67.00;;;15.54;45.63;98003.31;4973143;28;20388;-50
2023/05/24 07:16:16;;;;;;;9.32;4.22;;;12.50;65.90;;;15.50;45.52;98001.19;4974362;28;20046;-47
2023/05/24 07:18:44;;;;;;;11.43;4.00;;;12.50;66.30;;;15.45;45.49;97998.22;4973968;28;20430;-46
2023/05/24 07:21:11;;;;;;;5.93;3.53;;;12.40;65.70;;;15.49;45.59;98000.38;4969798;28;20058;-47
2023/05/24 07:23:39;;;;;;;22.83;6.13;;;12.50;66.20;;;15.50;45.41;98001.19;4974099;28;20058;-46
2023/05/24 07:26:07;;;;;;;12.43;4.88;;;12.50;65.80;;;15.59;45.46;97996.59;4973933;28;20276;-49
2023/05/24 07:28:37;;;;;;;8.45;3.63;;;12.60;65.70;;;15.69;45.35;98005.19;4973499;28;20050;-47
2023/05/24 07:31:08;;;;;;;10.93;4.10;;;12.80;64.60;;;15.75;45.19;98012.53;4973567;28;20070;-50
2023/05/24 07:33:36;;;;;;;10.98;4.03;;;12.90;64.70;;;15.80;45.13;98011.97;4973721;28;20430;-46
2023/05/24 07:36:05;;;;;;;10.10;4.45;;;13.00;64.40;;;15.83;45.11;98009.75;4973695;28;20070;-49
2023/05/24 07:38:33;;;;;;;8.43;4.65;;;12.90;65.00;;;15.94;45.04;98011.16;4973677;28;20053;-47
2023/05/24 07:41:03;;;;;;;9.10;4.15;;;13.10;65.10;;;16.00;45.00;98017.63;4973267;28;20051;-46
2023/05/24 07:43:31;;;;;;;5.88;3.20;;;13.10;64.00;;;15.96;44.71;98017.16;4972494;28;20047;-47
2023/05/24 07:45:58;;;;;;;10.40;5.05;;;13.00;64.30;;;15.85;44.97;98009.56;4973473;28;20526;-48
2023/05/24 07:48:26;;;;;;;10.82;4.60;;;12.90;65.30;;;15.86;45.19;98020.13;4973299;28;20050;-49
2023/05/24 07:50:54;;;;;;;6.90;4.40;;;12.90;66.50;;;15.87;45.16;98015.59;4972704;28;20055;-44
2023/05/24 07:53:22;;;;;;;10.63;4.25;;;12.90;65.00;;;15.85;44.84;98021.13;4973577;28;20043;-44
2023/05/24 07:55:50;;;;;;;10.00;4.22;;;12.90;64.50;;;15.85;45.14;98017.63;4973375;28;20050;-48
2023/05/24 07:58:18;;;;;;;10.60;4.35;;;12.90;65.10;;;15.71;44.86;98028.16;4973299;28;20043;-50
2023/05/24 08:00:45;;;;;;;8.68;4.20;;;12.70;65.00;;;15.71;44.99;98022.78;4973142;28;20062;-44
2023/05/24 08:03:14;;;;;;;11.25;4.45;;;12.70;65.50;;;15.81;45.16;98035.13;4972118;28;20423;-47
2023/05/24 08:05:42;;;;;;;9.63;4.75;;;12.90;64.90;;;15.78;45.00;98030.13;4973020;28;20042;-49
2023/05/24 08:08:10;;;;;;;10.13;4.32;;;12.80;65.00;;;15.82;44.83;98034.09;4973120;28;20039;-47
2023/05/24 08:10:38;;;;;;;11.23;4.45;;;12.90;64.50;;;15.88;44.85;98036.88;4972839;28;20042;-47
2023/05/24 08:13:06;;;;;;;9.85;3.47;;;13.00;64.30;;;15.90;44.59;98032.16;4972762;28;20055;-50
2023/05/24 08:15:34;;;;;;;11.43;4.90;;;13.00;63.80;;;15.98;44.74;98030.41;4973131;28;20062;-44
2023/05/24 08:18:02;;;;;;;14.63;5.10;;;13.10;64.20;;;16.08;44.41;98029.09;4972188;28;20055;-47
2023/05/24 08:20:30;;;;;;;9.77;4.82;;;13.20;63.90;;;16.03;44.56;98027.97;4972031;28;20053;-44
2023/05/24 08:22:58;;;;;;;11.95;4.45;;;13.10;63.80;;;15.99;44.63;98038.25;4972636;28;20050;-46
2023/05/24 08:25:26;;;;;;;9.30;5.25;;;13.00;64.30;;;15.93;44.68;98037.13;4971994;28;20047;-44
2023/05/24 08:27:56;;;;;;;9.18;4.28;;;13.00;64.60;;;15.86;44.84;98033.56;4972755;28;20430;-46
2023/05/24 08:30:23;;;;;;;13.15;5.10;;;12.90;64.70;;;15.92;44.86;98034.66;4972901;28;20087;-45
2023/05/24 08:32:51;;;;;;;9.40;4.10;;;12.90;64.90;;;15.96;44.44;98037.81;4973062;28;20525;-45
2023/05/24 08:35:20;;;;;;;9.63;4.55;;;12.90;64.50;;;16.01;44.75;98038.91;4972634;28;20533;-45
2023/05/24 08:37:49;;;;;;;11.85;4.70;;;13.10;64.60;;;16.09;44.95;98035.28;4972276;28;20042;-46
2023/05/24 08:40:17;;;;;;;8.13;4.47;;;13.30;64.20;;;16.17;44.27;98045.94;4972414;28;20050;-48
2023/05/24 08:42:45;;;;;;;12.75;5.15;;;13.30;63.10;;;16.14;44.18;98040.94;4972503;28;20043;-48
2023/05/24 08:45:14;;;;;;;12.93;4.30;;;13.20;62.60;;;16.08;44.14;98047.88;4972641;28;20496;-44
2023/05/24 08:47:43;;;;;;;10.18;4.55;;;13.10;63.30;;;16.06;43.98;98043.72;4972197;28;20062;-46
2023/05/24 08:50:12;;;;;;;7.32;4.25;;;13.10;63.60;;;15.94;44.21;98043.38;4954936;28;20451;-48
2023/05/24 08:52:41;;;;;;;13.73;5.13;;;12.80;64.10;;;15.98;44.67;98049.19;4972408;28;20042;-47
2023/05/24 08:55:10;;;;;;;8.77;4.28;;;13.00;64.50;;;16.00;44.52;98047.16;4972054;28;20050;-44
2023/05/24 08:57:40;;;;;;;7.18;5.18;;;13.00;64.20;;;16.11;44.50;98039.47;4972339;28;20062;-44
2023/05/24 09:00:10;;;;;;;16.30;5.18;;;13.20;63.70;;;16.14;44.36;98046.31;4954771;28;20055;-44
2023/05/24 09:02:40;;;;;;;10.38;4.38;;;13.10;63.30;;;16.14;44.34;98046.31;4971626;28;20062;-45
2023/05/24 09:05:11;;;;;;;7.47;4.53;;;13.10;64.20;;;16.17;44.24;98047.78;4962618;28;20055;-45
2023/05/24 09:07:40;;;;;;;13.30;4.18;;;13.10;63.90;;;16.18;44.24;98038.72;4972144;28;20518;-45
2023/05/24 09:10:09;;;;;;;7.82;4.55;;;13.10;64.10;;;16.20;44.22;98044.72;4970782;28;20054;-46
2023/05/24 09:12:39;;;;;;;10.10;5.10;;;13.10;63.80;;;16.30;44.36;98051.50;4955208;28;20050;-45
2023/05/24 09:15:07;;;;;;;8.40;5.18;;;13.40;63.70;;;16.41;44.33;98042.09;4970760;28;20046;-46
2023/05/24 09:17:37;;;;;;;9.65;5.45;;;13.50;63.30;;;16.52;44.15;98038.09;4972387;28;20058;-46
2023/05/24 09:20:09;;;;;;;11.82;4.63;;;13.70;62.70;;;16.60;43.82;98040.66;4971946;28;20146;-48
2023/05/24 09:22:39;;;;;;;8.80;4.47;;;13.70;62.40;;;16.68;43.75;98047.78;4972303;28;20082;-47
2023/05/24 09:25:12;;;;;;;12.23;4.53;;;13.70;62.60;;;16.79;43.33;98044.59;4971027;28;20498;-45
2023/05/24 09:27:40;;;;;;;9.90;4.50;;;14.00;61.60;;;16.91;42.99;98048.47;4970943;28;20414;-46
2023/05/24 09:30:09;;;;;;;11.10;5.18;;;14.10;61.20;;;16.99;43.10;98050.19;4971872;28;20415;-44
2023/05/24 09:32:37;;;;;;;8.35;4.63;;;14.20;61.00;;;17.06;42.90;98051.09;4959045;28;20349;-48
2023/05/24 09:35:09;;;;;;;11.90;5.40;;;14.30;60.40;;;17.05;42.96;98054.78;4974704;28;20051;-48
2023/05/24 09:37:39;;;;;;;12.85;5.03;;;14.50;60.00;;;17.16;42.84;98058.84;4975966;28;20046;-49
2023/05/24 09:40:18;;;;;;;10.63;4.65;;;14.50;59.80;;;17.26;42.76;98059.34;4975443;28;20426;-46
2023/05/24 09:42:50;;;;;;;20.05;4.60;;;14.50;59.30;;;17.24;42.29;98055.19;4975886;28;20392;-49
2023/05/24 09:45:17;;;;;;;11.63;4.80;;;14.30;59.40;;;17.13;42.39;98060.03;4967989;28;20039;-45
2023/05/24 09:47:45;;;;;;;11.95;5.05;;;14.10;60.50;;;17.04;42.76;98066.59;4975386;28;20047;-48
2023/05/24 09:50:16;;;;;;;8.30;4.47;;;13.90;61.40;;;17.02;42.75;98060.56;4975455;28;20107;-46
2023/05/24 09:52:44;;;;;;;8.88;5.30;;;13.90;61.00;;;17.01;42.37;98058.91;4958286;28;20054;-45
2023/05/24 09:55:17;;;;;;;7.07;4.65;;;13.90;59.60;;;17.02;42.10;98054.34;4975577;28;20428;-45
2023/05/24 09:58:07;;;;;;;7.70;4.13;;;13.80;60.30;;;17.17;42.38;98046.22;4974514;28;20047;-46
2023/05/24 10:00:40;;;;;;;12.70;5.43;;;14.10;59.00;;;17.29;41.83;98047.34;4959990;28;20490;-45
2023/05/24 10:03:11;;;;;;;10.45;4.10;;;14.30;59.30;;;17.37;41.51;98046.38;4975416;28;20537;-46
2023/05/24 10:05:43;;;;;;;8.05;4.90;;;14.50;57.50;;;17.32;40.98;98049.66;4958790;28;20058;-46
2023/05/24 10:08:13;;;;;;;9.27;4.63;;;14.40;56.70;;;17.27;41.24;98061.00;4974833;28;20065;-49
2023/05/24 10:10:41;;;;;;;10.20;4.40;;;14.30;58.20;;;17.28;41.48;98051.06;4975130;28;20065;-49
2023/05/24 10:13:10;;;;;;;12.75;4.55;;;14.50;57.90;;;17.40;41.60;98049.50;4974936;28;20057;-45
2023/05/24 10:15:38;;;;;;;14.93;5.28;;;14.80;57.70;;;17.48;41.25;98052.03;4974213;28;20050;-45
2023/05/24 10:18:07;;;;;;;8.05;4.88;;;14.80;56.70;;;17.49;40.78;98048.34;4975438;28;20077;-45
2023/05/24 10:20:42;;;;;;;8.70;4.95;;;14.60;57.00;;;17.59;40.63;98047.19;4956333;28;20051;-45
2023/05/24 10:23:17;;;;;;;7.55;4.00;;;14.60;56.70;;;17.68;40.63;98046.81;4974090;28;20418;-46
2023/05/24 10:25:54;;;;;;;9.77;3.88;;;14.70;57.00;;;17.86;40.88;98040.97;4975428;28;20047;-45
2023/05/24 10:28:23;;;;;;;9.05;4.55;;;15.00;56.60;;;17.89;39.74;98040.56;4974059;28;20524;-45